createdAt,value
2023-03-10T00:01:33.108Z,10.80
2023-03-10T00:04:01.789Z,10.90
2023-03-10T00:06:32.444Z,10.90
2023-03-10T00:08:59.623Z,10.90
2023-03-10T00:11:27.088Z,10.90
2023-03-10T00:13:53.892Z,10.80
2023-03-10T00:16:26.505Z,10.80
2023-03-10T00:18:53.854Z,10.80
2023-03-10T00:21:23.447Z,10.80
2023-03-10T00:23:51.062Z,10.70
2023-03-10T00:26:19.497Z,10.70
2023-03-10T00:28:46.849Z,10.70
2023-03-10T00:31:24.835Z,10.70
2023-03-10T00:33:52.213Z,10.70
2023-03-10T00:36:22.565Z,10.70
2023-03-10T00:38:50.755Z,10.70
2023-03-10T00:41:19.908Z,10.70
2023-03-10T00:43:47.436Z,10.70
2023-03-10T00:46:18.073Z,10.70
2023-03-10T00:48:45.525Z,10.60
2023-03-10T00:51:12.993Z,10.60
2023-03-10T00:53:40.636Z,10.60
2023-03-10T00:56:14.904Z,10.60
2023-03-10T00:58:46.021Z,10.60
2023-03-10T01:01:15.759Z,10.60
2023-03-10T01:03:43.104Z,10.60
2023-03-10T01:06:12.631Z,10.60
2023-03-10T01:08:39.651Z,10.60
2023-03-10T01:11:06.750Z,10.60
2023-03-10T01:13:33.976Z,10.60
2023-03-10T01:16:07.153Z,10.60
2023-03-10T01:18:33.929Z,10.60
2023-03-10T01:21:03.751Z,10.60
2023-03-10T01:23:30.572Z,10.60
2023-03-10T01:25:57.618Z,10.60
2023-03-10T01:28:24.608Z,10.50
2023-03-10T01:30:51.390Z,10.50
2023-03-10T01:33:18.697Z,10.50
2023-03-10T01:35:45.822Z,10.50
2023-03-10T01:38:12.858Z,10.50
2023-03-10T01:40:40.563Z,10.40
2023-03-10T01:43:29.559Z,10.40
2023-03-10T01:46:02.037Z,10.40
2023-03-10T01:48:35.931Z,10.40
2023-03-10T01:51:05.783Z,10.40
2023-03-10T01:53:33.563Z,10.40
2023-03-10T01:56:06.521Z,10.40
2023-03-10T01:58:41.126Z,10.40
2023-03-10T02:01:08.820Z,10.40
2023-03-10T02:03:51.343Z,10.50
2023-03-10T02:06:20.847Z,10.40
2023-03-10T02:09:03.428Z,10.40
2023-03-10T02:11:30.568Z,10.40
2023-03-10T02:13:57.381Z,10.50
2023-03-10T02:16:26.912Z,10.40
2023-03-10T02:18:53.593Z,10.40
2023-03-10T02:21:49.163Z,10.40
2023-03-10T02:24:45.489Z,10.40
2023-03-10T02:27:18.285Z,10.40
2023-03-10T02:29:59.332Z,10.40
2023-03-10T02:32:29.218Z,10.30
2023-03-10T02:34:56.056Z,10.30
2023-03-10T02:37:26.367Z,10.30
2023-03-10T02:39:53.022Z,10.20
2023-03-10T02:42:20.557Z,10.20
2023-03-10T02:44:48.875Z,10.20
2023-03-10T02:47:16.287Z,10.20
2023-03-10T02:49:43.310Z,10.20
2023-03-10T02:52:44.644Z,10.00
2023-03-10T02:55:18.346Z,9.90
2023-03-10T02:57:45.494Z,9.90
2023-03-10T03:00:12.929Z,9.90
2023-03-10T03:02:39.830Z,10.00
2023-03-10T03:05:07.183Z,10.00
2023-03-10T03:07:34.139Z,10.00
2023-03-10T03:10:01.150Z,10.00
2023-03-10T03:12:27.897Z,10.00
2023-03-10T03:14:54.559Z,10.00
2023-03-10T03:17:21.289Z,10.00
2023-03-10T03:19:48.139Z,10.10
2023-03-10T03:22:14.884Z,10.10
2023-03-10T03:24:41.548Z,10.10
2023-03-10T03:27:08.196Z,10.10
2023-03-10T03:29:35.015Z,10.10
2023-03-10T03:32:01.886Z,10.00
2023-03-10T03:34:28.664Z,10.00
2023-03-10T03:36:55.644Z,9.90
2023-03-10T03:39:22.337Z,9.80
2023-03-10T03:41:53.121Z,9.60
2023-03-10T03:44:20.005Z,9.30
2023-03-10T03:46:46.813Z,9.10
2023-03-10T03:49:13.560Z,9.00
2023-03-10T03:51:40.404Z,9.00
2023-03-10T03:54:07.115Z,9.10
2023-03-10T03:56:33.752Z,9.10
2023-03-10T03:59:00.541Z,9.30
2023-03-10T04:01:27.213Z,9.30
2023-03-10T04:03:54.045Z,9.40
2023-03-10T04:06:20.791Z,9.40
2023-03-10T04:08:50.116Z,9.50
2023-03-10T04:11:16.927Z,9.50
2023-03-10T04:13:43.572Z,9.60
2023-03-10T04:16:10.268Z,9.60
2023-03-10T04:18:37.368Z,9.70
2023-03-10T04:21:04.141Z,9.70
2023-03-10T04:23:31.023Z,9.80
2023-03-10T04:25:57.708Z,9.80
2023-03-10T04:28:24.497Z,9.80
2023-03-10T04:30:51.622Z,9.80
2023-03-10T04:33:21.999Z,9.80
2023-03-10T04:35:48.980Z,9.70
2023-03-10T04:38:15.784Z,9.70
2023-03-10T04:40:43.415Z,9.60
2023-03-10T04:43:10.215Z,9.60
2023-03-10T04:45:39.402Z,9.60
2023-03-10T04:48:06.040Z,9.60
2023-03-10T04:50:32.960Z,9.50
2023-03-10T04:52:59.625Z,9.60
2023-03-10T04:55:26.365Z,9.50
2023-03-10T04:57:53.015Z,9.50
2023-03-10T05:00:20.146Z,9.60
2023-03-10T05:02:47.050Z,9.60
2023-03-10T05:05:13.956Z,9.60
2023-03-10T05:07:40.792Z,9.60
2023-03-10T05:10:08.276Z,9.50
2023-03-10T05:12:34.984Z,9.50
2023-03-10T05:15:01.947Z,9.50
2023-03-10T05:17:29.732Z,9.50
2023-03-10T05:19:57.894Z,9.40
2023-03-10T05:22:24.538Z,9.50
2023-03-10T05:24:51.334Z,9.60
2023-03-10T05:27:19.853Z,9.60
2023-03-10T05:29:47.327Z,9.70
2023-03-10T05:32:14.250Z,9.70
2023-03-10T05:34:40.999Z,9.60
2023-03-10T05:37:07.686Z,9.50
2023-03-10T05:39:34.617Z,9.40
2023-03-10T05:42:01.299Z,9.30
2023-03-10T05:44:27.962Z,9.20
2023-03-10T05:46:54.934Z,9.20
2023-03-10T05:49:21.700Z,9.20
2023-03-10T05:51:48.764Z,9.10
2023-03-10T05:54:16.666Z,9.10
2023-03-10T05:56:43.406Z,9.10
2023-03-10T05:59:10.476Z,9.10
2023-03-10T06:01:37.296Z,9.10
2023-03-10T06:04:06.527Z,9.10
2023-03-10T06:06:33.980Z,9.10
2023-03-10T06:09:02.003Z,9.00
2023-03-10T06:11:28.723Z,9.00
2023-03-10T06:13:55.507Z,8.90
2023-03-10T06:16:22.245Z,8.90
2023-03-10T06:18:53.963Z,8.90
2023-03-10T06:21:21.115Z,8.90
2023-03-10T06:23:47.776Z,8.80
2023-03-10T06:26:16.192Z,8.80
2023-03-10T06:28:44.891Z,8.70
2023-03-10T06:31:37.887Z,8.60
2023-03-10T06:34:04.875Z,8.50
2023-03-10T06:36:32.504Z,8.50
2023-03-10T06:38:59.444Z,8.50
2023-03-10T06:41:27.837Z,8.50
2023-03-10T06:43:57.530Z,8.40
2023-03-10T06:46:25.621Z,8.40
2023-03-10T06:48:52.446Z,8.40
2023-03-10T06:51:20.222Z,8.40
2023-03-10T06:53:47.628Z,8.40
2023-03-10T06:56:17.887Z,8.40
2023-03-10T06:58:45.733Z,8.50
2023-03-10T07:01:33.165Z,8.50
2023-03-10T07:04:01.237Z,8.60
2023-03-10T07:06:28.519Z,8.60
2023-03-10T07:08:55.368Z,8.60
2023-03-10T07:11:23.052Z,8.60
2023-03-10T07:13:50.408Z,8.60
2023-03-10T07:16:20.938Z,8.70
2023-03-10T07:18:48.779Z,8.80
2023-03-10T07:21:20.418Z,8.90
2023-03-10T07:23:50.296Z,9.00
2023-03-10T07:26:21.563Z,9.10
2023-03-10T07:28:48.356Z,9.10
2023-03-10T07:31:17.979Z,9.30
2023-03-10T07:33:44.784Z,9.40
2023-03-10T07:36:15.365Z,9.70
2023-03-10T07:38:46.121Z,9.80
2023-03-10T07:41:21.679Z,9.70
2023-03-10T07:43:52.388Z,9.70
2023-03-10T07:46:20.795Z,9.50
2023-03-10T07:48:47.545Z,9.40
2023-03-10T07:51:14.597Z,9.30
2023-03-10T07:53:41.318Z,9.10
2023-03-10T07:56:10.543Z,9.00
2023-03-10T07:58:37.407Z,8.90
2023-03-10T08:01:05.507Z,8.70
2023-03-10T08:03:34.141Z,8.60
2023-03-10T08:06:02.451Z,8.50
2023-03-10T08:08:29.165Z,8.50
2023-03-10T08:11:09.728Z,8.40
2023-03-10T08:13:37.027Z,8.30
2023-03-10T08:16:07.674Z,8.30
2023-03-10T08:18:34.488Z,8.30
2023-03-10T08:21:06.749Z,8.30
2023-03-10T08:23:34.648Z,8.30
2023-03-10T08:26:10.861Z,8.40
2023-03-10T08:28:38.878Z,8.50
2023-03-10T08:31:14.039Z,8.60
2023-03-10T08:33:41.510Z,8.80
2023-03-10T08:36:20.663Z,8.90
2023-03-10T08:38:47.803Z,9.00
2023-03-10T08:41:45.512Z,9.10
2023-03-10T08:44:15.393Z,9.30
2023-03-10T08:46:46.625Z,9.50
2023-03-10T08:49:15.662Z,9.60
2023-03-10T08:51:43.117Z,9.70
2023-03-10T08:54:12.664Z,9.90
2023-03-10T08:56:39.417Z,10.00
2023-03-10T09:01:36.579Z,10.30
2023-03-10T09:04:05.629Z,11.00
2023-03-10T09:06:32.839Z,11.30
2023-03-10T09:08:59.454Z,11.40
2023-03-10T09:11:31.434Z,11.40
2023-03-10T09:13:59.430Z,11.10
2023-03-10T09:16:26.637Z,10.90
2023-03-10T09:18:53.345Z,10.60
2023-03-10T09:21:20.436Z,10.40
2023-03-10T09:26:16.027Z,10.30
2023-03-10T09:28:42.891Z,10.00
2023-03-10T09:31:14.233Z,9.90
2023-03-10T09:33:41.395Z,9.80
2023-03-10T09:36:08.753Z,9.80
2023-03-10T09:38:36.452Z,9.80
2023-03-10T09:41:34.610Z,9.90
2023-03-10T09:44:33.142Z,10.20
2023-03-10T09:47:20.933Z,10.80
2023-03-10T09:50:21.671Z,11.20
2023-03-10T09:53:18.397Z,11.20
2023-03-10T09:55:48.536Z,10.90
2023-03-10T09:58:33.055Z,10.80
2023-03-10T10:01:01.284Z,10.80
2023-03-10T10:03:53.746Z,10.60
2023-03-10T10:06:28.504Z,10.50
2023-03-10T10:09:07.544Z,10.60
2023-03-10T10:11:37.860Z,10.80
2023-03-10T10:22:15.390Z,11.20
2023-03-10T10:32:14.291Z,12.60
2023-03-10T11:06:24.459Z,12.10
2023-03-10T17:17:48.714Z,13.30
2023-03-10T18:14:42.056Z,7.40
2023-03-10T18:17:08.672Z,6.60
2023-03-10T18:19:35.277Z,6.50
2023-03-10T18:22:05.572Z,6.40
2023-03-10T18:24:32.609Z,6.00
2023-03-10T18:31:55.612Z,5.50
2023-03-10T18:34:22.247Z,4.70
2023-03-10T18:46:41.828Z,4.50
2023-03-10T18:56:34.945Z,4.10
2023-03-10T18:59:02.803Z,3.30
2023-03-10T19:01:29.956Z,3.20
2023-03-10T19:03:56.680Z,3.20
2023-03-10T19:06:23.688Z,3.20
2023-03-10T19:08:53.257Z,3.50
2023-03-10T19:11:22.599Z,3.60
2023-03-10T19:13:49.615Z,3.70
2023-03-10T19:16:16.990Z,3.80
2023-03-10T19:18:46.552Z,3.80
2023-03-10T19:21:16.223Z,3.80
2023-03-10T19:23:43.948Z,3.80
2023-03-10T19:26:14.501Z,3.80
2023-03-10T19:28:41.187Z,3.70
2023-03-10T19:31:12.676Z,3.70
2023-03-10T19:33:42.286Z,3.60
2023-03-10T19:36:12.544Z,3.60
2023-03-10T19:38:40.549Z,3.60
2023-03-10T19:41:13.206Z,3.50
2023-03-10T19:46:11.477Z,3.50
2023-03-10T19:48:39.558Z,3.30
2023-03-10T19:51:07.579Z,3.20
2023-03-10T19:53:35.371Z,3.10
2023-03-10T19:58:31.745Z,3.10
2023-03-10T20:00:58.638Z,3.00
2023-03-10T20:03:27.922Z,3.00
2023-03-10T20:05:55.112Z,3.00
2023-03-10T20:08:23.355Z,2.90
2023-03-10T20:10:50.885Z,2.90
2023-03-10T20:13:17.555Z,2.90
2023-03-10T20:15:47.137Z,2.90
2023-03-10T20:18:16.302Z,2.90
2023-03-10T20:20:43.051Z,2.90
2023-03-10T20:23:09.787Z,2.90
2023-03-10T20:25:36.483Z,2.90
2023-03-10T20:28:03.141Z,2.90
2023-03-10T20:30:30.826Z,2.90
2023-03-10T20:32:59.809Z,2.90
2023-03-10T20:35:29.106Z,2.90
2023-03-10T20:37:58.100Z,2.90
2023-03-10T20:40:25.835Z,2.90
2023-03-10T20:42:54.720Z,2.90
2023-03-10T20:45:23.019Z,2.80
2023-03-10T20:47:50.500Z,2.80
2023-03-10T20:50:17.647Z,2.80
2023-03-10T20:52:44.956Z,2.80
2023-03-10T20:55:19.722Z,2.80
2023-03-10T20:57:47.966Z,2.80
2023-03-10T21:00:20.137Z,2.80
2023-03-10T21:02:48.590Z,2.80
2023-03-10T21:05:19.679Z,2.80
2023-03-10T21:07:46.836Z,2.80
2023-03-10T21:10:14.849Z,2.80
2023-03-10T21:12:43.138Z,2.70
2023-03-10T21:15:13.092Z,2.70
2023-03-10T21:17:39.802Z,2.70
2023-03-10T21:20:08.108Z,2.70
2023-03-10T21:22:39.822Z,2.70
2023-03-10T21:25:14.201Z,2.70
2023-03-10T21:27:40.901Z,2.70
2023-03-10T21:30:12.725Z,2.70
2023-03-10T21:32:39.476Z,2.70
2023-03-10T21:35:06.898Z,2.70
2023-03-10T21:37:34.844Z,2.70
2023-03-10T21:40:02.490Z,2.70
2023-03-10T21:42:29.257Z,2.70
2023-03-10T21:44:59.007Z,2.70
2023-03-10T21:47:25.675Z,2.70
2023-03-10T21:49:52.647Z,2.70
2023-03-10T21:52:19.307Z,2.60
2023-03-10T21:54:49.053Z,2.70
2023-03-10T21:57:15.745Z,2.60
2023-03-10T21:59:42.438Z,2.60
2023-03-10T22:02:25.622Z,2.70
2023-03-10T22:04:52.397Z,2.60
2023-03-10T22:07:19.261Z,2.70
2023-03-10T22:09:45.968Z,2.60
2023-03-10T22:12:15.930Z,2.60
2023-03-10T22:14:42.988Z,2.60
2023-03-10T22:17:09.681Z,2.50
2023-03-10T22:19:36.394Z,2.50
2023-03-10T22:22:03.322Z,2.40
2023-03-10T22:24:30.083Z,2.40
2023-03-10T22:26:56.840Z,2.30
2023-03-10T22:29:23.465Z,2.30
2023-03-10T22:31:56.096Z,2.20
2023-03-10T22:34:22.975Z,2.00
2023-03-10T22:36:49.685Z,1.90
2023-03-10T22:39:16.522Z,1.80
2023-03-10T22:41:43.498Z,1.70
2023-03-10T22:44:10.235Z,1.60
2023-03-10T22:46:36.922Z,1.50
2023-03-10T22:49:04.620Z,1.40
2023-03-10T22:51:34.392Z,1.30
2023-03-10T22:54:01.232Z,1.30
2023-03-10T22:56:27.890Z,1.20
2023-03-10T22:58:55.633Z,1.20
2023-03-10T23:01:22.494Z,1.10
2023-03-10T23:03:49.292Z,1.20
2023-03-10T23:06:18.114Z,1.10
2023-03-10T23:08:46.615Z,1.20
2023-03-10T23:11:16.448Z,1.10
2023-03-10T23:13:43.252Z,1.10
2023-03-10T23:16:10.092Z,1.10
2023-03-10T23:18:36.769Z,1.10
2023-03-10T23:21:06.447Z,1.20
2023-03-10T23:23:33.198Z,1.20
2023-03-10T23:25:59.905Z,1.10
2023-03-10T23:28:26.706Z,0.90
2023-03-10T23:30:54.326Z,0.80
2023-03-10T23:33:22.956Z,0.70
2023-03-10T23:35:54.440Z,0.60
2023-03-10T23:38:23.395Z,0.60
2023-03-10T23:40:51.254Z,0.60
2023-03-10T23:43:18.020Z,0.60
2023-03-10T23:45:47.822Z,0.60
2023-03-10T23:48:16.173Z,0.60
2023-03-10T23:50:44.807Z,0.50
2023-03-10T23:53:13.017Z,0.50
2023-03-10T23:55:42.478Z,0.40
2023-03-10T23:58:09.417Z,0.50
